createdAt,value
2023-04-24T00:01:38.007Z,1.20
2023-04-24T00:04:06.879Z,1.42
2023-04-24T00:06:35.684Z,1.40
2023-04-24T00:09:04.290Z,1.23
2023-04-24T00:11:32.688Z,0.98
2023-04-24T00:14:02.658Z,1.35
2023-04-24T00:16:31.117Z,1.35
2023-04-24T00:18:59.267Z,1.20
2023-04-24T00:21:27.915Z,1.20
2023-04-24T00:23:56.030Z,1.10
2023-04-24T00:26:24.132Z,1.10
2023-04-24T00:28:52.670Z,1.20
2023-04-24T00:31:22.204Z,1.00
2023-04-24T00:33:50.331Z,1.17
2023-04-24T00:36:21.918Z,1.10
2023-04-24T00:38:50.009Z,0.98
2023-04-24T00:41:18.142Z,0.95
2023-04-24T00:43:46.789Z,1.17
2023-04-24T00:46:15.844Z,1.35
2023-04-24T00:48:45.667Z,1.10
2023-04-24T00:51:14.168Z,1.00
2023-04-24T00:53:42.223Z,0.80
2023-04-24T00:56:10.742Z,0.90
2023-04-24T00:58:39.127Z,0.90
2023-04-24T01:01:08.860Z,0.95
2023-04-24T01:03:38.516Z,1.10
2023-04-24T01:06:09.026Z,0.90
2023-04-24T01:08:38.065Z,0.80
2023-04-24T01:11:07.220Z,0.88
2023-04-24T01:13:36.426Z,0.80
2023-04-24T01:16:04.859Z,0.80
2023-04-24T01:18:33.328Z,0.80
2023-04-24T01:21:03.480Z,0.80
2023-04-24T01:23:33.007Z,0.65
2023-04-24T01:26:01.215Z,0.73
2023-04-24T01:28:29.401Z,0.60
2023-04-24T01:30:58.460Z,0.60
2023-04-24T01:33:26.684Z,0.70
2023-04-24T01:35:55.201Z,0.57
2023-04-24T01:38:23.660Z,0.80
2023-04-24T01:40:54.023Z,0.88
2023-04-24T01:43:22.397Z,0.85
2023-04-24T01:45:50.786Z,0.90
2023-04-24T01:48:18.909Z,0.70
2023-04-24T01:50:47.210Z,0.80
2023-04-24T01:53:15.517Z,0.73
2023-04-24T01:55:43.777Z,0.70
2023-04-24T01:58:13.641Z,0.70
2023-04-24T02:00:41.821Z,0.60
2023-04-24T02:03:10.319Z,0.77
2023-04-24T02:05:38.535Z,0.98
2023-04-24T02:08:07.040Z,0.80
2023-04-24T02:10:35.106Z,0.80
2023-04-24T02:13:03.631Z,0.80
2023-04-24T02:15:33.135Z,0.70
2023-04-24T02:18:01.738Z,0.65
2023-04-24T02:20:30.082Z,0.52
2023-04-24T02:22:58.522Z,0.60
2023-04-24T02:25:26.732Z,0.70
2023-04-24T02:27:55.125Z,0.60
2023-04-24T02:30:23.752Z,0.60
2023-04-24T02:32:53.254Z,0.70
2023-04-24T02:35:21.967Z,0.77
2023-04-24T02:37:50.148Z,0.90
2023-04-24T02:40:18.593Z,0.73
2023-04-24T02:42:46.778Z,0.60
2023-04-24T02:45:14.884Z,0.60
2023-04-24T02:47:43.311Z,0.75
2023-04-24T02:50:12.940Z,0.85
2023-04-24T02:52:41.072Z,0.65
2023-04-24T02:55:10.060Z,0.60
2023-04-24T02:57:38.422Z,0.70
2023-04-24T03:00:08.415Z,1.00
2023-04-24T03:02:36.710Z,0.60
2023-04-24T03:05:05.500Z,0.70
2023-04-24T03:07:34.978Z,0.70
2023-04-24T03:10:03.206Z,0.70
2023-04-24T03:12:31.346Z,0.70
2023-04-24T03:14:59.888Z,0.60
2023-04-24T03:17:28.112Z,0.80
2023-04-24T03:19:56.433Z,0.70
2023-04-24T03:22:24.566Z,0.82
2023-04-24T03:24:54.370Z,0.70
2023-04-24T03:27:22.451Z,0.70
2023-04-24T03:29:52.643Z,0.60
2023-04-24T03:32:21.008Z,0.70
2023-04-24T03:34:49.085Z,0.70
2023-04-24T03:37:17.389Z,0.60
2023-04-24T03:39:45.714Z,0.70
2023-04-24T03:42:15.342Z,0.80
2023-04-24T03:44:43.482Z,0.63
2023-04-24T03:47:11.569Z,0.70
2023-04-24T03:49:39.738Z,0.52
2023-04-24T03:52:08.258Z,0.63
2023-04-24T03:54:36.392Z,0.65
2023-04-24T03:57:05.977Z,0.70
2023-04-24T03:59:35.418Z,0.80
2023-04-24T04:02:03.829Z,0.70
2023-04-24T04:04:32.318Z,0.55
2023-04-24T04:07:02.251Z,0.80
2023-04-24T04:09:30.506Z,0.80
2023-04-24T04:11:58.623Z,0.65
2023-04-24T04:14:27.117Z,0.60
2023-04-24T04:16:56.614Z,0.60
2023-04-24T04:19:25.009Z,0.63
2023-04-24T04:21:54.571Z,0.73
2023-04-24T04:24:23.580Z,0.68
2023-04-24T04:26:52.175Z,0.85
2023-04-24T04:29:20.883Z,0.77
2023-04-24T04:31:49.026Z,0.80
2023-04-24T04:34:19.453Z,0.93
2023-04-24T04:36:47.759Z,0.60
2023-04-24T04:39:17.580Z,0.65
2023-04-24T04:41:47.658Z,0.68
2023-04-24T04:44:16.065Z,0.70
2023-04-24T04:46:45.452Z,0.60
2023-04-24T04:49:14.180Z,0.68
2023-04-24T04:51:43.956Z,0.40
2023-04-24T04:54:12.068Z,0.60
2023-04-24T04:56:40.621Z,0.50
2023-04-24T04:59:08.745Z,0.60
2023-04-24T05:01:37.991Z,0.50
2023-04-24T05:04:06.316Z,0.70
2023-04-24T05:06:34.577Z,0.68
2023-04-24T05:09:04.909Z,0.50
2023-04-24T05:11:33.011Z,0.60
2023-04-24T05:14:01.508Z,0.73
2023-04-24T05:16:29.658Z,0.60
2023-04-24T05:18:58.397Z,0.50
2023-04-24T05:21:26.485Z,0.80
2023-04-24T05:23:54.614Z,0.70
2023-04-24T05:26:24.575Z,0.55
2023-04-24T05:28:52.696Z,0.70
2023-04-24T05:31:20.878Z,0.50
2023-04-24T05:33:49.284Z,0.60
2023-04-24T05:36:17.426Z,0.50
2023-04-24T05:38:45.885Z,0.70
2023-04-24T05:41:14.043Z,0.63
2023-04-24T05:43:43.530Z,0.43
2023-04-24T05:46:11.664Z,0.80
2023-04-24T05:48:40.050Z,0.60
2023-04-24T05:51:08.139Z,0.70
2023-04-24T05:53:36.682Z,0.50
2023-04-24T05:56:05.196Z,0.55
2023-04-24T05:58:33.255Z,0.60
2023-04-24T06:01:03.912Z,0.60
2023-04-24T06:03:32.100Z,0.50
2023-04-24T06:06:00.338Z,0.43
2023-04-24T06:08:29.044Z,0.60
2023-04-24T06:10:57.450Z,0.70
2023-04-24T06:13:25.584Z,0.60
2023-04-24T06:15:54.876Z,0.70
2023-04-24T06:18:24.377Z,0.52
2023-04-24T06:20:53.186Z,0.45
2023-04-24T06:23:21.291Z,0.60
2023-04-24T06:25:49.640Z,0.60
2023-04-24T06:28:17.723Z,0.50
2023-04-24T06:30:45.872Z,0.57
2023-04-24T06:35:48.713Z,0.57
2023-04-24T06:38:17.632Z,0.60
2023-04-24T06:40:45.910Z,0.50
2023-04-24T06:43:14.303Z,0.60
2023-04-24T06:45:44.308Z,0.50
2023-04-24T06:48:12.949Z,0.50
2023-04-24T06:50:41.433Z,0.52
2023-04-24T06:53:12.423Z,0.63
2023-04-24T06:55:40.820Z,0.60
2023-04-24T06:58:09.390Z,0.80
2023-04-24T07:00:37.476Z,0.50
2023-04-24T07:03:06.629Z,0.50
2023-04-24T07:05:36.171Z,0.60
2023-04-24T07:08:05.367Z,0.63
2023-04-24T07:10:36.806Z,0.63
2023-04-24T07:13:04.964Z,0.60
2023-04-24T07:15:33.486Z,0.60
2023-04-24T07:18:04.019Z,0.63
2023-04-24T07:20:34.586Z,0.60
2023-04-24T07:23:03.020Z,0.60
2023-04-24T07:25:32.394Z,0.70
2023-04-24T07:28:01.886Z,0.60
2023-04-24T07:30:30.693Z,0.80
2023-04-24T07:32:58.822Z,0.60
2023-04-24T07:35:27.767Z,0.60
2023-04-24T07:37:55.879Z,0.60
2023-04-24T07:40:24.682Z,0.80
2023-04-24T07:42:53.003Z,0.90
2023-04-24T07:45:24.312Z,0.85
2023-04-24T07:47:53.048Z,0.68
2023-04-24T07:50:21.923Z,0.60
2023-04-24T07:52:50.030Z,0.68
2023-04-24T07:55:19.298Z,0.80
2023-04-24T07:57:48.470Z,0.63
2023-04-24T08:00:17.560Z,0.60
2023-04-24T08:02:47.143Z,0.70
2023-04-24T08:05:15.622Z,0.95
2023-04-24T08:07:44.405Z,0.90
2023-04-24T08:10:12.972Z,0.60
2023-04-24T08:12:41.344Z,0.70
2023-04-24T08:15:10.806Z,0.50
2023-04-24T08:17:38.903Z,0.52
2023-04-24T08:20:14.476Z,0.45
2023-04-24T08:22:42.671Z,0.55
2023-04-24T08:25:11.807Z,0.73
2023-04-24T08:27:40.180Z,0.50
2023-04-24T08:30:09.350Z,0.30
2023-04-24T08:32:38.126Z,0.68
2023-04-24T08:35:10.170Z,0.70
2023-04-24T08:37:39.107Z,0.80
2023-04-24T08:40:13.947Z,0.95
2023-04-24T08:42:45.053Z,0.80
2023-04-24T08:45:14.911Z,1.15
2023-04-24T08:47:45.394Z,1.00
2023-04-24T08:50:16.337Z,1.13
2023-04-24T08:52:45.169Z,1.90
2023-04-24T08:55:13.260Z,1.35
2023-04-24T08:57:42.611Z,1.40
2023-04-24T09:00:12.286Z,1.30
2023-04-24T09:02:44.873Z,1.33
2023-04-24T09:05:16.060Z,1.00
2023-04-24T09:07:47.444Z,1.20
2023-04-24T09:10:15.993Z,1.17
2023-04-24T09:12:44.625Z,1.10
2023-04-24T09:15:13.553Z,1.40
2023-04-24T09:17:42.069Z,1.30
2023-04-24T09:20:11.196Z,0.40
2023-04-24T09:22:41.328Z,0.45
2023-04-24T09:25:13.811Z,1.10
2023-04-24T09:27:45.701Z,1.90
2023-04-24T09:30:15.413Z,1.40
2023-04-24T09:32:44.741Z,1.08
2023-04-24T09:35:14.626Z,0.43
2023-04-24T09:37:46.030Z,1.40
2023-04-24T09:40:16.762Z,2.00
2023-04-24T09:42:49.255Z,1.70
2023-04-24T09:45:17.802Z,1.23
2023-04-24T09:47:45.997Z,2.00
2023-04-24T09:50:20.696Z,1.13
2023-04-24T09:52:59.785Z,1.73
2023-04-24T09:55:28.877Z,1.77
2023-04-24T09:57:58.650Z,1.90
2023-04-24T10:00:29.495Z,1.98
2023-04-24T10:03:02.737Z,1.42
2023-04-24T10:05:33.535Z,2.08
2023-04-24T10:08:08.102Z,1.50
2023-04-24T10:10:39.497Z,1.75
2023-04-24T10:13:09.156Z,1.55
2023-04-24T10:15:37.545Z,2.00
2023-04-24T10:18:07.597Z,1.60
2023-04-24T10:20:37.677Z,1.52
2023-04-24T10:23:07.833Z,1.77
2023-04-24T10:25:38.039Z,1.50
2023-04-24T10:28:09.075Z,1.85
2023-04-24T10:30:38.952Z,1.90
2023-04-24T10:33:09.902Z,1.38
2023-04-24T10:35:43.782Z,1.60
2023-04-24T10:38:15.670Z,1.52
2023-04-24T10:40:45.181Z,1.85
2023-04-24T10:43:18.740Z,1.58
2023-04-24T10:46:03.185Z,1.13
2023-04-24T10:48:31.615Z,1.27
2023-04-24T10:50:59.973Z,1.45
2023-04-24T10:53:32.254Z,1.15
2023-04-24T10:56:04.617Z,1.25
2023-04-24T10:58:41.320Z,1.30
2023-04-24T11:01:09.793Z,1.27
2023-04-24T11:03:38.955Z,0.82
2023-04-24T11:06:08.670Z,1.20
2023-04-24T11:08:45.304Z,1.00
2023-04-24T11:11:15.290Z,1.00
2023-04-24T11:14:08.924Z,1.17
2023-04-24T11:16:41.579Z,1.38
2023-04-24T11:19:11.402Z,1.20
2023-04-24T11:21:45.316Z,1.27
2023-04-24T11:24:51.132Z,1.10
2023-04-24T11:27:21.285Z,1.10
2023-04-24T11:29:51.837Z,1.30
2023-04-24T11:32:31.441Z,1.30
2023-04-24T11:35:01.510Z,1.33
2023-04-24T11:37:31.880Z,1.42
2023-04-24T11:40:02.380Z,1.27
2023-04-24T11:42:35.643Z,1.40
2023-04-24T11:45:05.141Z,0.88
2023-04-24T11:47:34.853Z,0.90
2023-04-24T11:50:04.035Z,0.95
2023-04-24T11:52:32.766Z,1.10
2023-04-24T11:55:02.565Z,1.17
2023-04-24T11:57:34.678Z,1.00
2023-04-24T12:00:04.601Z,0.80
2023-04-24T12:02:33.981Z,1.17
2023-04-24T12:05:02.855Z,0.80
2023-04-24T12:07:31.199Z,1.10
2023-04-24T12:10:01.900Z,0.90
2023-04-24T12:12:30.550Z,0.90
2023-04-24T12:15:00.406Z,1.10
2023-04-24T12:17:30.644Z,0.70
2023-04-24T12:20:03.466Z,1.00
2023-04-24T12:22:46.489Z,0.70
2023-04-24T12:25:16.874Z,0.80
2023-04-24T12:27:46.119Z,0.85
2023-04-24T12:30:16.306Z,0.95
2023-04-24T12:32:45.404Z,0.77
2023-04-24T12:35:14.021Z,0.73
2023-04-24T12:37:47.259Z,0.70
2023-04-24T12:40:17.722Z,0.70
2023-04-24T12:42:47.271Z,0.88
2023-04-24T12:45:16.921Z,0.90
2023-04-24T12:47:46.235Z,0.60
2023-04-24T12:50:15.867Z,0.40
2023-04-24T12:52:44.952Z,0.80
2023-04-24T12:55:14.273Z,0.70
2023-04-24T12:57:43.816Z,0.98
2023-04-24T13:00:12.594Z,1.15
2023-04-24T13:02:41.004Z,0.80
2023-04-24T13:05:10.351Z,0.77
2023-04-24T13:07:38.450Z,1.00
2023-04-24T13:10:07.527Z,0.75
2023-04-24T13:12:36.606Z,0.73
2023-04-24T13:15:07.518Z,0.73
2023-04-24T13:17:35.721Z,0.90
2023-04-24T13:20:04.036Z,0.90
2023-04-24T13:22:32.239Z,0.70
2023-04-24T13:25:00.650Z,0.80
2023-04-24T13:27:28.788Z,0.80
2023-04-24T13:29:57.176Z,0.80
2023-04-24T13:32:28.213Z,0.73
2023-04-24T13:34:56.453Z,0.60
2023-04-24T13:37:24.810Z,0.90
2023-04-24T13:39:53.027Z,0.30
2023-04-24T13:42:21.754Z,0.40
2023-04-24T13:44:50.371Z,0.30
2023-04-24T13:47:18.797Z,0.30
2023-04-24T13:49:48.269Z,0.32
2023-04-24T13:52:16.970Z,0.38
2023-04-24T13:54:45.410Z,0.70
2023-04-24T13:57:13.959Z,0.60
2023-04-24T13:59:42.147Z,0.65
2023-04-24T14:02:10.778Z,0.60
2023-04-24T14:04:39.307Z,0.32
2023-04-24T14:07:09.869Z,0.50
2023-04-24T14:09:37.954Z,0.60
2023-04-24T14:12:07.133Z,0.43
2023-04-24T14:14:36.022Z,0.50
2023-04-24T14:17:04.197Z,0.60
2023-04-24T14:19:32.333Z,0.60
2023-04-24T14:22:00.439Z,0.50
2023-04-24T14:24:29.958Z,0.70
2023-04-24T14:26:58.251Z,0.90
2023-04-24T14:29:27.247Z,0.45
2023-04-24T14:31:55.529Z,0.65
2023-04-24T14:34:23.999Z,0.55
2023-04-24T14:37:12.859Z,0.70
2023-04-24T14:39:56.214Z,1.02
2023-04-24T14:42:43.986Z,1.25
2023-04-24T14:45:23.772Z,0.63
2023-04-24T14:48:12.745Z,0.80
2023-04-24T14:50:43.955Z,0.85
2023-04-24T14:53:21.816Z,0.40
2023-04-24T14:55:55.180Z,0.40
2023-04-24T15:01:20.625Z,0.70
2023-04-24T15:03:55.598Z,0.40
2023-04-24T15:06:31.523Z,0.60
2023-04-24T15:09:33.919Z,0.50
2023-04-24T15:12:05.312Z,0.50
2023-04-24T15:14:35.568Z,0.30
2023-04-24T15:17:06.312Z,0.35
2023-04-24T15:19:37.708Z,0.40
2023-04-24T15:22:06.942Z,0.30
2023-04-24T15:24:35.888Z,0.40
2023-04-24T15:27:05.891Z,0.38
2023-04-24T15:29:34.337Z,0.40
2023-04-24T15:32:02.977Z,0.30
2023-04-24T15:34:33.257Z,0.20
2023-04-24T15:37:02.027Z,0.45
2023-04-24T15:39:30.571Z,0.40
2023-04-24T15:41:59.052Z,0.22
2023-04-24T15:44:28.770Z,0.40
2023-04-24T15:46:58.123Z,0.47
2023-04-24T15:49:27.609Z,0.45
2023-04-24T15:51:56.095Z,0.43
2023-04-24T15:54:25.135Z,0.43
2023-04-24T15:56:53.660Z,0.50
2023-04-24T15:59:23.060Z,0.50
2023-04-24T16:01:53.318Z,0.50
2023-04-24T16:04:22.273Z,0.52
2023-04-24T16:06:50.776Z,0.70
2023-04-24T16:09:19.472Z,0.70
2023-04-24T16:11:48.059Z,0.70
2023-04-24T16:14:16.540Z,0.70
2023-04-24T16:16:45.176Z,0.70
2023-04-24T16:19:15.017Z,0.80
2023-04-24T16:21:43.355Z,0.85
2023-04-24T16:24:11.878Z,0.82
2023-04-24T16:26:45.485Z,0.73
2023-04-24T16:29:15.779Z,0.82
2023-04-24T16:31:46.071Z,0.70
2023-04-24T16:34:16.067Z,0.90
2023-04-24T16:36:44.823Z,0.80
2023-04-24T16:39:14.039Z,1.00
2023-04-24T16:41:42.268Z,1.10
2023-04-24T16:44:10.669Z,1.00
2023-04-24T16:46:39.226Z,0.90
2023-04-24T16:49:08.005Z,1.10
2023-04-24T16:51:37.822Z,1.25
2023-04-24T16:54:06.176Z,1.10
2023-04-24T16:56:34.392Z,1.00
2023-04-24T16:59:03.071Z,1.00
2023-04-24T17:01:31.425Z,1.20
2023-04-24T17:04:00.031Z,1.38
2023-04-24T17:06:28.453Z,1.40
2023-04-24T17:09:00.513Z,1.42
2023-04-24T17:11:31.130Z,1.15
2023-04-24T17:14:00.848Z,1.33
2023-04-24T17:16:30.083Z,1.20
2023-04-24T17:18:58.388Z,1.40
2023-04-24T17:21:26.685Z,1.30
2023-04-24T17:23:55.192Z,1.70
2023-04-24T17:26:25.090Z,1.88
2023-04-24T17:28:54.507Z,1.50
2023-04-24T17:31:30.652Z,1.33
2023-04-24T17:33:59.756Z,1.58
2023-04-24T17:36:28.419Z,1.50
2023-04-24T17:38:56.767Z,1.80
2023-04-24T17:41:27.212Z,1.77
2023-04-24T17:43:55.622Z,1.50
2023-04-24T17:46:24.236Z,1.60
2023-04-24T17:48:56.536Z,1.52
2023-04-24T17:51:24.724Z,2.05
2023-04-24T17:53:53.394Z,1.95
2023-04-24T17:56:22.080Z,1.70
2023-04-24T17:58:52.442Z,1.52
2023-04-24T18:01:20.707Z,1.92
2023-04-24T18:03:49.030Z,2.30
2023-04-24T18:06:18.931Z,1.30
2023-04-24T18:08:47.738Z,1.70
2023-04-24T18:11:19.567Z,1.08
2023-04-24T18:13:48.696Z,1.48
2023-04-24T18:16:18.338Z,1.40
2023-04-24T18:18:46.808Z,1.60
2023-04-24T18:21:15.156Z,1.60
2023-04-24T18:23:43.721Z,1.40
2023-04-24T18:26:14.719Z,1.52
2023-04-24T18:28:43.162Z,0.95
2023-04-24T18:31:12.019Z,1.60
2023-04-24T18:33:41.787Z,1.45
2023-04-24T18:36:10.555Z,1.30
2023-04-24T18:38:39.066Z,1.92
2023-04-24T18:41:07.593Z,1.67
2023-04-24T18:43:35.822Z,1.30
2023-04-24T18:46:03.998Z,1.42
2023-04-24T18:48:32.327Z,1.45
2023-04-24T18:51:01.975Z,1.33
2023-04-24T18:53:30.142Z,1.50
2023-04-24T18:55:58.858Z,1.60
2023-04-24T18:58:27.863Z,1.10
2023-04-24T19:00:56.232Z,1.10
2023-04-24T19:03:24.636Z,1.25
2023-04-24T19:05:53.196Z,1.42
2023-04-24T19:08:22.843Z,1.20
2023-04-24T19:10:51.273Z,0.60
2023-04-24T19:13:20.263Z,0.70
2023-04-24T19:15:48.471Z,1.40
2023-04-24T19:18:17.291Z,1.80
2023-04-24T19:20:45.705Z,1.30
2023-04-24T19:23:14.499Z,1.58
2023-04-24T19:25:44.177Z,1.17
2023-04-24T19:28:12.445Z,1.50
2023-04-24T19:30:40.752Z,2.00
2023-04-24T19:33:09.090Z,0.82
2023-04-24T19:35:38.641Z,1.70
2023-04-24T19:38:07.006Z,1.73
2023-04-24T19:40:35.138Z,1.35
2023-04-24T19:43:04.772Z,1.13
2023-04-24T19:45:33.009Z,1.20
2023-04-24T19:48:01.349Z,1.25
2023-04-24T19:50:29.649Z,1.27
2023-04-24T19:52:57.812Z,1.30
2023-04-24T19:55:26.285Z,1.23
2023-04-24T19:58:09.677Z,1.13
2023-04-24T20:00:41.568Z,1.20
2023-04-24T20:03:15.797Z,1.67
2023-04-24T20:05:50.263Z,1.05
2023-04-24T20:08:18.660Z,1.02
2023-04-24T20:10:46.866Z,1.10
2023-04-24T20:13:15.178Z,0.95
2023-04-24T20:15:44.814Z,1.75
2023-04-24T20:18:13.964Z,1.42
2023-04-24T20:20:42.164Z,1.55
2023-04-24T20:23:10.585Z,1.50
2023-04-24T20:25:38.858Z,1.27
2023-04-24T20:28:07.559Z,1.20
2023-04-24T20:30:35.909Z,1.38
2023-04-24T20:33:05.729Z,1.70
2023-04-24T20:35:35.335Z,1.42
2023-04-24T20:38:03.570Z,0.90
2023-04-24T20:40:31.905Z,0.88
2023-04-24T20:43:00.583Z,1.10
2023-04-24T20:45:28.896Z,1.50
2023-04-24T20:47:59.903Z,1.48
2023-04-24T20:50:30.635Z,1.08
2023-04-24T20:52:58.903Z,1.75
2023-04-24T20:55:27.339Z,1.65
2023-04-24T20:57:55.655Z,0.98
2023-04-24T21:00:26.666Z,1.20
2023-04-24T21:02:55.883Z,1.27
2023-04-24T21:05:24.613Z,1.02
2023-04-24T21:07:56.463Z,0.50
2023-04-24T21:10:25.335Z,1.08
2023-04-24T21:12:54.421Z,1.67
2023-04-24T21:15:23.126Z,1.20
2023-04-24T21:17:56.008Z,1.50
2023-04-24T21:20:33.954Z,1.20
2023-04-24T21:23:05.485Z,1.23
2023-04-24T21:25:46.217Z,1.50
2023-04-24T21:28:15.600Z,2.75
2023-04-24T21:30:44.478Z,2.40
2023-04-24T21:33:14.236Z,2.92
2023-04-24T21:35:43.031Z,2.10
2023-04-24T21:38:27.118Z,2.33
2023-04-24T21:40:55.742Z,1.55
2023-04-24T21:43:37.035Z,1.55
2023-04-24T21:46:17.202Z,2.10
2023-04-24T21:48:46.068Z,1.92
2023-04-24T21:51:16.726Z,2.08
2023-04-24T21:53:47.492Z,2.05
2023-04-24T21:56:21.980Z,1.95
2023-04-24T21:58:50.743Z,1.92
2023-04-24T22:01:19.283Z,2.17
2023-04-24T22:03:48.677Z,1.90
2023-04-24T22:06:17.794Z,1.70
2023-04-24T22:08:48.383Z,1.92
2023-04-24T22:11:26.595Z,1.30
2023-04-24T22:13:56.202Z,1.58
2023-04-24T22:16:27.756Z,1.52
2023-04-24T22:19:02.235Z,2.00
2023-04-24T22:21:32.184Z,1.52
2023-04-24T22:24:04.276Z,1.70
2023-04-24T22:26:33.207Z,0.88
2023-04-24T22:29:01.574Z,1.55
2023-04-24T22:31:32.692Z,2.00
2023-04-24T22:34:01.277Z,1.98
2023-04-24T22:36:32.234Z,1.75
2023-04-24T22:39:02.178Z,1.35
2023-04-24T22:41:30.950Z,2.08
2023-04-24T22:43:59.519Z,1.58
2023-04-24T22:46:28.445Z,1.00
2023-04-24T22:48:58.564Z,1.15
2023-04-24T22:51:34.224Z,1.98
2023-04-24T22:54:06.200Z,1.63
2023-04-24T22:56:36.070Z,2.40
2023-04-24T22:59:05.343Z,1.95
2023-04-24T23:01:34.499Z,1.98
2023-04-24T23:04:03.157Z,1.92
2023-04-24T23:06:32.374Z,2.08
2023-04-24T23:09:01.515Z,1.92
2023-04-24T23:11:32.146Z,1.92
2023-04-24T23:14:05.315Z,1.90
2023-04-24T23:16:41.611Z,2.40
2023-04-24T23:19:12.322Z,1.98
2023-04-24T23:21:45.376Z,2.47
2023-04-24T23:24:15.386Z,2.35
2023-04-24T23:26:45.728Z,2.45
2023-04-24T23:29:15.844Z,2.67
2023-04-24T23:31:44.883Z,2.65
2023-04-24T23:34:13.574Z,2.47
2023-04-24T23:36:42.112Z,2.50
2023-04-24T23:39:11.260Z,2.67
2023-04-24T23:41:40.337Z,1.88
2023-04-24T23:44:10.757Z,3.08
2023-04-24T23:46:39.862Z,2.50
2023-04-24T23:49:09.777Z,2.58
2023-04-24T23:51:38.677Z,2.70
2023-04-24T23:54:08.092Z,2.60
2023-04-24T23:56:36.972Z,2.85
2023-04-24T23:59:06.028Z,3.03
